Methane Princess — V7VN4 — position and weather

sailwx.info

Track history (hours):
 
Tides and Currents Weather Stations Pressure Air Temp Water Temp Dewpoint Dewpoint Depression Visibility Wind Speed Wind Dir Waves Ship Positions

Methane Princess

Last reported at 2017-Dec-17 21:30 UTC. Time now 2017-Dec-17 21:51 UTC.
Position N 43°22' W 003°06'.

Length 266 m; draft 11.1 m.

Type: Tanker. MMSI: 538004164.

Date/timePositionNaut miles runAvg speedWind from/ knotsBaromVisibWave heightAir tempDewpointWater temp
2017-Dec-17 21:30N 43°22' W 003°06'0 0.0
2017-Dec-17 21:00N 43°22' W 003°06'0 0.0
2017-Dec-17 20:30N 43°22' W 003°06'0 0.0
2017-Dec-17 20:00N 43°22' W 003°06'0 0.0
2017-Dec-17 19:30N 43°22' W 003°06'0 0.0
2017-Dec-17 19:00N 43°22' W 003°06'0 0.0
2017-Dec-17 18:30N 43°22' W 003°06'0 0.0
2017-Dec-17 18:00N 43°22' W 003°06'0 0.0
2017-Dec-17 17:30N 43°22' W 003°06'0 0.0
2017-Dec-17 17:00N 43°22' W 003°06'0 0.0
2017-Dec-17 16:30N 43°22' W 003°06'0 0.0
2017-Dec-17 16:00N 43°22' W 003°06'0 0.0
2017-Dec-17 15:30N 43°22' W 003°06'0 0.0
2017-Dec-17 15:00N 43°22' W 003°06'0 0.0
2017-Dec-17 14:30N 43°22' W 003°06'0 0.0
2017-Dec-17 14:00N 43°22' W 003°06'0 0.0
2017-Dec-17 13:30N 43°22' W 003°06'0 0.0
2017-Dec-17 13:00N 43°22' W 003°06'0 0.0
2017-Dec-17 12:30N 43°22' W 003°06'0 0.0
2017-Dec-17 12:00N 43°22' W 003°06'0 0.0
2017-Dec-17 11:30N 43°22' W 003°06'0 0.0
2017-Dec-17 11:00N 43°22' W 003°06'0 0.0
2017-Dec-17 10:30N 43°22' W 003°06'0 0.0
2017-Dec-17 10:00N 43°22' W 003°06'0 0.0
2017-Dec-17 09:30N 43°22' W 003°06'0 0.0
2017-Dec-17 09:00N 43°22' W 003°06'0 0.0
2017-Dec-17 08:30N 43°22' W 003°06'0 0.0
2017-Dec-17 08:00N 43°22' W 003°06'0 0.0
2017-Dec-17 07:30N 43°22' W 003°06'0 0.0
2017-Dec-17 07:00N 43°22' W 003°06'0 0.0
2017-Dec-17 06:30N 43°22' W 003°06'0 0.0
2017-Dec-17 06:00N 43°22' W 003°06'0 0.0
2017-Dec-17 05:30N 43°22' W 003°06'0 0.0
2017-Dec-17 05:00N 43°22' W 003°06'0 0.0
2017-Dec-17 04:30N 43°22' W 003°06'0 0.0
2017-Dec-17 04:00N 43°22' W 003°06'0 0.0
2017-Dec-17 03:30N 43°22' W 003°06'0 0.0
2017-Dec-17 03:00N 43°22' W 003°06'0 0.0
2017-Dec-17 02:30N 43°22' W 003°06'0 0.0
2017-Dec-17 02:00N 43°22' W 003°06'0 0.0
2017-Dec-17 01:30N 43°22' W 003°06'1 2.1
2017-Dec-17 01:01N 43°23' W 003°05'3 6.0
2017-Dec-17 00:30N 43°25' W 003°07'0 0.8
2017-Dec-17 00:00N 43°26' W 003°07'1 1.3
2017-Dec-16 23:30N 43°26' W 003°07'1 1.5
2017-Dec-16 23:00N 43°27' W 003°07'2 4.9
2017-Dec-16 22:30N 43°29' W 003°07'4 8.6
2017-Dec-16 22:00N 43°34' W 003°08'5 8.8
2017-Dec-16 21:29N 43°38' W 003°07'4 8.1
2017-Dec-16 20:59N 43°42' W 003°05'2 4.5
2017-Dec-16 20:30N 43°42' W 003°02'2 3.7
2017-Dec-16 20:00N 43°41' W 002°59'2 3.6
2017-Dec-16 19:30N 43°40' W 002°57'2 3.2
2017-Dec-16 19:00N 43°39' W 002°55'2 3.4
2017-Dec-16 18:30N 43°38' W 002°53'2 3.5
2017-Dec-16 18:00N 43°38' W 002°51'2 3.7
2017-Dec-16 17:30N 43°37' W 002°49'1 1.9
2017-Dec-16 17:00N 43°36' W 002°48'2 4.9
2017-Dec-16 16:30N 43°37' W 002°52'2 4.9
2017-Dec-16 16:00N 43°38' W 002°55'2 4.9
2017-Dec-16 15:30N 43°38' W 002°58'2 4.8
2017-Dec-16 15:00N 43°39' W 003°01'2 4.7
2017-Dec-16 14:30N 43°40' W 003°04'2 5.0
2017-Dec-16 14:00N 43°41' W 003°07'1 1.8
2017-Dec-16 13:30N 43°42' W 003°07'2 3.1
2017-Dec-16 13:00N 43°42' W 003°05'1 2.9
2017-Dec-16 12:30N 43°41' W 003°03'1 3.0
2017-Dec-16 12:00N 43°41' W 003°01'1 2.9
2017-Dec-16 11:30N 43°40' W 002°59'1 2.9
2017-Dec-16 11:00N 43°40' W 002°58'0 0.9
2017-Dec-16 10:30N 43°39' W 002°58'3 5.4
2017-Dec-16 10:00N 43°41' W 003°01'2 5.0
2017-Dec-16 09:30N 43°42' W 003°04'3 6.6
2017-Dec-16 09:00N 43°43' W 003°08'3 5.1
2017-Dec-16 08:30N 43°44' W 003°12'2 3.5
2017-Dec-16 08:00N 43°44' W 003°14'1 2.7
2017-Dec-16 07:30N 43°43' W 003°12'1 2.7
2017-Dec-16 07:00N 43°43' W 003°11'1 2.6
2017-Dec-16 06:30N 43°42' W 003°09'1 2.4
2017-Dec-16 06:00N 43°42' W 003°07'1 2.3
2017-Dec-16 05:30N 43°42' W 003°06'1 2.2
2017-Dec-16 05:00N 43°41' W 003°04'1 2.1
2017-Dec-16 04:31N 43°41' W 003°03'1 2.1
2017-Dec-16 04:01N 43°41' W 003°02'1 1.9
2017-Dec-16 03:29N 43°41' W 003°00'1 1.6
2017-Dec-16 03:00N 43°41' W 002°59'1 2.0
2017-Dec-16 02:31N 43°40' W 002°58'1 1.8
2017-Dec-16 02:00N 43°40' W 002°57'1 1.7
2017-Dec-16 01:30N 43°40' W 002°56'1 1.8
2017-Dec-16 01:00N 43°39' W 002°54'1 1.7
2017-Dec-16 00:31N 43°39' W 002°53'1 2.1
2017-Dec-16 00:00N 43°40' W 002°52'3 6.3
2017-Dec-15 23:30N 43°42' W 002°55'3 5.7
2017-Dec-15 23:00N 43°42' W 002°59'2 3.4
2017-Dec-15 22:29N 43°42' W 003°02'2 3.8
2017-Dec-15 22:00N 43°43' W 003°04'2 4.6
2017-Dec-15 21:30N 43°45' W 003°04'2 4.6
2017-Dec-15 21:00N 43°48' W 003°04'3 5.5
2017-Dec-15 20:30N 43°50' W 003°06'1 1.1
2017-Dec-15 20:01N 43°50' W 003°06'1 2.0
2017-Dec-15 19:30N 43°49' W 003°05'1 2.1
2017-Dec-15 19:00N 43°49' W 003°03'1 1.7
2017-Dec-15 18:30N 43°48' W 003°02'1 1.6
2017-Dec-15 17:34N 43°48' W 003°00'0 1.3
2017-Dec-15 17:30N 43°48' W 003°00'0 1.0
2017-Dec-15 17:00N 43°47' W 002°60'1 1.3
2017-Dec-15 16:30N 43°47' W 002°59'1 1.2
2017-Dec-15 16:01N 43°47' W 002°58'1 1.3
2017-Dec-15 15:29N 43°47' W 002°57'2 3.8
2017-Dec-15 15:00N 43°46' W 002°55'3 5.2
2017-Dec-15 14:30N 43°44' W 002°52'2 4.4
2017-Dec-15 14:01N 43°43' W 002°50'1 2.2
2017-Dec-15 13:30N 43°42' W 002°50'1 2.3
2017-Dec-15 13:00N 43°41' W 002°51'1 2.4
2017-Dec-15 12:30N 43°41' W 002°53'1 2.4
2017-Dec-15 12:00N 43°40' W 002°54'1 2.7
2017-Dec-15 11:30N 43°39' W 002°55'2 3.1
2017-Dec-15 11:01N 43°38' W 002°57'2 3.1
2017-Dec-15 10:30N 43°36' W 002°58'1 2.3
2017-Dec-15 10:00N 43°35' W 002°59'1 2.3
2017-Dec-15 09:30N 43°34' W 002°60'1 2.5
2017-Dec-15 08:59N 43°33' W 003°01'1 2.9
2017-Dec-15 08:30N 43°33' W 003°02'1 2.5
2017-Dec-15 08:00N 43°31' W 003°03'2 3.1
2017-Dec-15 07:30N 43°30' W 003°05'1 1.3
2017-Dec-15 07:00N 43°30' W 003°05'1 1.0
2017-Dec-15 06:30N 43°29' W 003°05'1 1.3
2017-Dec-15 06:00N 43°29' W 003°05'1 2.0
2017-Dec-15 05:30N 43°28' W 003°05'1 2.2
2017-Dec-15 05:00N 43°27' W 003°05'1 2.3
2017-Dec-15 04:31N 43°26' W 003°06'2 4.8
2017-Dec-15 04:00N 43°27' W 003°09'15 9.9
2017-Dec-15 02:30N 43°37' W 003°24'1711.1
2017-Dec-15 01:00N 43°40' W 003°47'5 9.7
2017-Dec-15 00:30N 43°41' W 003°53'6510.9
2017-Dec-14 18:30N 43°52' W 005°22'611.2
2017-Dec-14 18:00N 43°53' W 005°30'611.1
2017-Dec-14 17:30N 43°54' W 005°38'611.2
2017-Dec-14 16:55N 43°55' W 005°47'710.8
2017-Dec-14 16:15N 43°56' W 005°57'411.0
2017-Dec-14 15:51N 43°57' W 006°03'  
2017-Dec-11 12:55N 28°59' W 015°00'614.6
2017-Dec-11 12:30N 28°53' W 015°02'714.6
2017-Dec-11 12:00N 28°46' W 015°05'714.2
2017-Dec-11 11:30N 28°39' W 015°07'713.6
2017-Dec-11 11:01N 28°33' W 015°10'713.6
2017-Dec-11 10:31N 28°26' W 015°12'713.6
2017-Dec-11 10:01N 28°20' W 015°14'713.3
2017-Dec-11 09:31N 28°14' W 015°17'612.0
2017-Dec-11 09:01N 28°09' W 015°21'2 3.2
2017-Dec-11 08:31N 28°07' W 015°21'2 3.7
2017-Dec-11 08:01N 28°07' W 015°19'4 8.4
2017-Dec-11 07:31N 28°07' W 015°14'510.5
2017-Dec-11 07:01N 28°07' W 015°08'510.3
2017-Dec-11 06:31N 28°07' W 015°03'510.3
2017-Dec-11 06:01N 28°05' W 014°57'4 8.9
2017-Dec-11 05:31N 28°00' W 014°57'612.7
2017-Dec-11 05:01N 27°54' W 015°00'612.9
2017-Dec-11 04:31N 27°48' W 015°03'612.8
2017-Dec-11 04:00N 27°42' W 015°06'812.6
2017-Dec-11 03:24N 27°35' W 015°09'512.7
2017-Dec-11 03:00N 27°30' W 015°11'  
Track history (hours):
 
Tides and Currents Weather Stations Pressure Air Temp Water Temp Dewpoint Dewpoint Depression Visibility Wind Speed Wind Dir Waves Ship Positions

Methane Princess

Last reported at 2017-Dec-17 21:30 UTC. Time now 2017-Dec-17 21:51 UTC.
Position N 43°22' W 003°06'.

Length 266 m; draft 11.1 m.

Type: Tanker. MMSI: 538004164.

Date/timePositionNaut miles runAvg speedWind from/ knotsBaromVisibWave heightAir tempDewpointWater temp
2017-Dec-17 21:30N 43°22' W 003°06'0 0.0
2017-Dec-17 21:00N 43°22' W 003°06'0 0.0
2017-Dec-17 20:30N 43°22' W 003°06'0 0.0
2017-Dec-17 20:00N 43°22' W 003°06'0 0.0
2017-Dec-17 19:30N 43°22' W 003°06'0 0.0
2017-Dec-17 19:00N 43°22' W 003°06'0 0.0
2017-Dec-17 18:30N 43°22' W 003°06'0 0.0
2017-Dec-17 18:00N 43°22' W 003°06'0 0.0
2017-Dec-17 17:30N 43°22' W 003°06'0 0.0
2017-Dec-17 17:00N 43°22' W 003°06'0 0.0
2017-Dec-17 16:30N 43°22' W 003°06'0 0.0
2017-Dec-17 16:00N 43°22' W 003°06'0 0.0
2017-Dec-17 15:30N 43°22' W 003°06'0 0.0
2017-Dec-17 15:00N 43°22' W 003°06'0 0.0
2017-Dec-17 14:30N 43°22' W 003°06'0 0.0
2017-Dec-17 14:00N 43°22' W 003°06'0 0.0
2017-Dec-17 13:30N 43°22' W 003°06'0 0.0
2017-Dec-17 13:00N 43°22' W 003°06'0 0.0
2017-Dec-17 12:30N 43°22' W 003°06'0 0.0
2017-Dec-17 12:00N 43°22' W 003°06'0 0.0
2017-Dec-17 11:30N 43°22' W 003°06'0 0.0
2017-Dec-17 11:00N 43°22' W 003°06'0 0.0
2017-Dec-17 10:30N 43°22' W 003°06'0 0.0
2017-Dec-17 10:00N 43°22' W 003°06'0 0.0
2017-Dec-17 09:30N 43°22' W 003°06'0 0.0
2017-Dec-17 09:00N 43°22' W 003°06'0 0.0
2017-Dec-17 08:30N 43°22' W 003°06'0 0.0
2017-Dec-17 08:00N 43°22' W 003°06'0 0.0
2017-Dec-17 07:30N 43°22' W 003°06'0 0.0
2017-Dec-17 07:00N 43°22' W 003°06'0 0.0
2017-Dec-17 06:30N 43°22' W 003°06'0 0.0
2017-Dec-17 06:00N 43°22' W 003°06'0 0.0
2017-Dec-17 05:30N 43°22' W 003°06'0 0.0
2017-Dec-17 05:00N 43°22' W 003°06'0 0.0
2017-Dec-17 04:30N 43°22' W 003°06'0 0.0
2017-Dec-17 04:00N 43°22' W 003°06'0 0.0
2017-Dec-17 03:30N 43°22' W 003°06'0 0.0
2017-Dec-17 03:00N 43°22' W 003°06'0 0.0
2017-Dec-17 02:30N 43°22' W 003°06'0 0.0
2017-Dec-17 02:00N 43°22' W 003°06'0 0.0
2017-Dec-17 01:30N 43°22' W 003°06'1 2.1
2017-Dec-17 01:01N 43°23' W 003°05'3 6.0
2017-Dec-17 00:30N 43°25' W 003°07'0 0.8
2017-Dec-17 00:00N 43°26' W 003°07'1 1.3
2017-Dec-16 23:30N 43°26' W 003°07'1 1.5
2017-Dec-16 23:00N 43°27' W 003°07'2 4.9
2017-Dec-16 22:30N 43°29' W 003°07'4 8.6
2017-Dec-16 22:00N 43°34' W 003°08'5 8.8
2017-Dec-16 21:29N 43°38' W 003°07'4 8.1
2017-Dec-16 20:59N 43°42' W 003°05'2 4.5
2017-Dec-16 20:30N 43°42' W 003°02'2 3.7
2017-Dec-16 20:00N 43°41' W 002°59'2 3.6
2017-Dec-16 19:30N 43°40' W 002°57'2 3.2
2017-Dec-16 19:00N 43°39' W 002°55'2 3.4
2017-Dec-16 18:30N 43°38' W 002°53'2 3.5
2017-Dec-16 18:00N 43°38' W 002°51'2 3.7
2017-Dec-16 17:30N 43°37' W 002°49'1 1.9
2017-Dec-16 17:00N 43°36' W 002°48'2 4.9
2017-Dec-16 16:30N 43°37' W 002°52'2 4.9
2017-Dec-16 16:00N 43°38' W 002°55'2 4.9
2017-Dec-16 15:30N 43°38' W 002°58'2 4.8
2017-Dec-16 15:00N 43°39' W 003°01'2 4.7
2017-Dec-16 14:30N 43°40' W 003°04'2 5.0
2017-Dec-16 14:00N 43°41' W 003°07'1 1.8
2017-Dec-16 13:30N 43°42' W 003°07'2 3.1
2017-Dec-16 13:00N 43°42' W 003°05'1 2.9
2017-Dec-16 12:30N 43°41' W 003°03'1 3.0
2017-Dec-16 12:00N 43°41' W 003°01'1 2.9
2017-Dec-16 11:30N 43°40' W 002°59'1 2.9
2017-Dec-16 11:00N 43°40' W 002°58'0 0.9
2017-Dec-16 10:30N 43°39' W 002°58'3 5.4
2017-Dec-16 10:00N 43°41' W 003°01'2 5.0
2017-Dec-16 09:30N 43°42' W 003°04'3 6.6
2017-Dec-16 09:00N 43°43' W 003°08'3 5.1
2017-Dec-16 08:30N 43°44' W 003°12'2 3.5
2017-Dec-16 08:00N 43°44' W 003°14'1 2.7
2017-Dec-16 07:30N 43°43' W 003°12'1 2.7
2017-Dec-16 07:00N 43°43' W 003°11'1 2.6
2017-Dec-16 06:30N 43°42' W 003°09'1 2.4
2017-Dec-16 06:00N 43°42' W 003°07'1 2.3
2017-Dec-16 05:30N 43°42' W 003°06'1 2.2
2017-Dec-16 05:00N 43°41' W 003°04'1 2.1
2017-Dec-16 04:31N 43°41' W 003°03'1 2.1
2017-Dec-16 04:01N 43°41' W 003°02'1 1.9
2017-Dec-16 03:29N 43°41' W 003°00'1 1.6
2017-Dec-16 03:00N 43°41' W 002°59'1 2.0
2017-Dec-16 02:31N 43°40' W 002°58'1 1.8
2017-Dec-16 02:00N 43°40' W 002°57'1 1.7
2017-Dec-16 01:30N 43°40' W 002°56'1 1.8
2017-Dec-16 01:00N 43°39' W 002°54'1 1.7
2017-Dec-16 00:31N 43°39' W 002°53'1 2.1
2017-Dec-16 00:00N 43°40' W 002°52'3 6.3
2017-Dec-15 23:30N 43°42' W 002°55'3 5.7
2017-Dec-15 23:00N 43°42' W 002°59'2 3.4
2017-Dec-15 22:29N 43°42' W 003°02'2 3.8
2017-Dec-15 22:00N 43°43' W 003°04'2 4.6
2017-Dec-15 21:30N 43°45' W 003°04'2 4.6
2017-Dec-15 21:00N 43°48' W 003°04'3 5.5
2017-Dec-15 20:30N 43°50' W 003°06'1 1.1
2017-Dec-15 20:01N 43°50' W 003°06'1 2.0
2017-Dec-15 19:30N 43°49' W 003°05'1 2.1
2017-Dec-15 19:00N 43°49' W 003°03'1 1.7
2017-Dec-15 18:30N 43°48' W 003°02'1 1.6
2017-Dec-15 17:34N 43°48' W 003°00'0 1.3
2017-Dec-15 17:30N 43°48' W 003°00'0 1.0
2017-Dec-15 17:00N 43°47' W 002°60'1 1.3
2017-Dec-15 16:30N 43°47' W 002°59'1 1.2
2017-Dec-15 16:01N 43°47' W 002°58'1 1.3
2017-Dec-15 15:29N 43°47' W 002°57'2 3.8
2017-Dec-15 15:00N 43°46' W 002°55'3 5.2
2017-Dec-15 14:30N 43°44' W 002°52'2 4.4
2017-Dec-15 14:01N 43°43' W 002°50'1 2.2
2017-Dec-15 13:30N 43°42' W 002°50'1 2.3
2017-Dec-15 13:00N 43°41' W 002°51'1 2.4
2017-Dec-15 12:30N 43°41' W 002°53'1 2.4
2017-Dec-15 12:00N 43°40' W 002°54'1 2.7
2017-Dec-15 11:30N 43°39' W 002°55'2 3.1
2017-Dec-15 11:01N 43°38' W 002°57'2 3.1
2017-Dec-15 10:30N 43°36' W 002°58'1 2.3
2017-Dec-15 10:00N 43°35' W 002°59'1 2.3
2017-Dec-15 09:30N 43°34' W 002°60'1 2.5
2017-Dec-15 08:59N 43°33' W 003°01'1 2.9
2017-Dec-15 08:30N 43°33' W 003°02'1 2.5
2017-Dec-15 08:00N 43°31' W 003°03'2 3.1
2017-Dec-15 07:30N 43°30' W 003°05'1 1.3
2017-Dec-15 07:00N 43°30' W 003°05'1 1.0
2017-Dec-15 06:30N 43°29' W 003°05'1 1.3
2017-Dec-15 06:00N 43°29' W 003°05'1 2.0
2017-Dec-15 05:30N 43°28' W 003°05'1 2.2
2017-Dec-15 05:00N 43°27' W 003°05'1 2.3
2017-Dec-15 04:31N 43°26' W 003°06'2 4.8
2017-Dec-15 04:00N 43°27' W 003°09'15 9.9
2017-Dec-15 02:30N 43°37' W 003°24'1711.1
2017-Dec-15 01:00N 43°40' W 003°47'5 9.7
2017-Dec-15 00:30N 43°41' W 003°53'6510.9
2017-Dec-14 18:30N 43°52' W 005°22'611.2
2017-Dec-14 18:00N 43°53' W 005°30'611.1
2017-Dec-14 17:30N 43°54' W 005°38'611.2
2017-Dec-14 16:55N 43°55' W 005°47'710.8
2017-Dec-14 16:15N 43°56' W 005°57'411.0
2017-Dec-14 15:51N 43°57' W 006°03'  
2017-Dec-11 12:55N 28°59' W 015°00'614.6
2017-Dec-11 12:30N 28°53' W 015°02'714.6
2017-Dec-11 12:00N 28°46' W 015°05'714.2
2017-Dec-11 11:30N 28°39' W 015°07'713.6
2017-Dec-11 11:01N 28°33' W 015°10'713.6
2017-Dec-11 10:31N 28°26' W 015°12'713.6
2017-Dec-11 10:01N 28°20' W 015°14'713.3
2017-Dec-11 09:31N 28°14' W 015°17'612.0
2017-Dec-11 09:01N 28°09' W 015°21'2 3.2
2017-Dec-11 08:31N 28°07' W 015°21'2 3.7
2017-Dec-11 08:01N 28°07' W 015°19'4 8.4
2017-Dec-11 07:31N 28°07' W 015°14'510.5
2017-Dec-11 07:01N 28°07' W 015°08'510.3
2017-Dec-11 06:31N 28°07' W 015°03'510.3
2017-Dec-11 06:01N 28°05' W 014°57'4 8.9
2017-Dec-11 05:31N 28°00' W 014°57'612.7
2017-Dec-11 05:01N 27°54' W 015°00'612.9
2017-Dec-11 04:31N 27°48' W 015°03'612.8
2017-Dec-11 04:00N 27°42' W 015°06'812.6
2017-Dec-11 03:24N 27°35' W 015°09'512.7
2017-Dec-11 03:00N 27°30' W 015°11'  

Dump ship's entire track history